Terminal Aerodrome Forecast
Issued by NWS

Home | Current Version | Previous Version | Text Only | Print | Product List | Glossary On
Versions: 1 2 3 4 5 6 7 8 9 10 11 12 13 14 15 16 17 18 19 20 21
838
FTUS43 KILX 300536
TAFDEC
TAF
KDEC 300536Z 3006/3106 VRB04KT P6SM SCT050
     FM300900 VRB03KT 3SM BR SCT050
     FM301200 VRB03KT 3SM BR BKN020
     FM301600 29005KT P6SM BKN035
     FM310200 VRB03KT P6SM SCT040=

USA.gov is the U.S. government's official web portal to all federal, state and local government web resources and services.